Time;durP1;ratioP1;P1;durP2;ratioP2;P2;SDS_P1;SDS_P2;PMS_P1;PMS_P2;Temp;Humidity;BMP_temperature;BMP_pressure;BME280_temperature;BME280_humidity;BME280_pressure;Samples;Min_cycle;Max_cycle;Signal;HPM_P1;HPM_P2
2022/01/22 00:01:15;;;;;;;4.73;1.40;;;;;;;;;;5079709;28;20204;-88
2022/01/22 00:03:44;;;;;;;9.60;2.90;;;;;;;;;;5079334;28;20306;-89
2022/01/22 00:06:14;;;;;;;5.07;1.70;;;;;;;;;;5079787;28;20218;-89
2022/01/22 00:08:43;;;;;;;1.13;1.03;;;;;;;;;;5079185;28;20261;-90
2022/01/22 00:11:12;;;;;;;6.57;2.40;;;;;;;;;;5079001;28;20213;-88
2022/01/22 00:16:26;;;;;;;8.50;2.73;;;;;;;;;;5079521;28;20241;-89
2022/01/22 00:18:54;;;;;;;3.00;1.47;;;;;;;;;;5079576;28;20196;-89
2022/01/22 00:21:23;;;;;;;3.67;1.30;;;;;;;;;;5079182;28;20209;-89
2022/01/22 00:23:58;;;;;;;1.10;1.10;;;;;;;;;;5079033;28;20202;-89
2022/01/22 00:26:26;;;;;;;2.60;2.33;;;;;;;;;;5078650;28;20232;-89
2022/01/22 00:28:55;;;;;;;3.93;1.83;;;;;;;;;;5078497;28;20368;-89
2022/01/22 00:31:23;;;;;;;2.07;1.97;;;;;;;;;;5078651;28;20206;-89
2022/01/22 00:33:52;;;;;;;12.70;2.17;;;;;;;;;;5078594;28;20284;-89
2022/01/22 00:36:20;;;;;;;4.37;1.67;;;;;;;;;;5079045;28;20206;-89
2022/01/22 00:38:49;;;;;;;3.10;2.47;;;;;;;;;;5078657;28;20206;-89
2022/01/22 00:41:19;;;;;;;1.97;1.87;;;;;;;;;;5078705;28;20203;-89
2022/01/22 00:43:48;;;;;;;2.67;2.10;;;;;;;;;;5077898;28;20245;-89
2022/01/22 00:46:17;;;;;;;1.57;1.47;;;;;;;;;;5077820;28;20200;-89
2022/01/22 00:48:46;;;;;;;10.27;1.70;;;;;;;;;;5078677;28;20258;-89
2022/01/22 00:51:14;;;;;;;1.00;1.00;;;;;;;;;;5078550;28;20212;-89
2022/01/22 00:53:42;;;;;;;2.10;1.70;;;;;;;;;;5078504;28;20194;-89
2022/01/22 00:56:11;;;;;;;3.13;1.37;;;;;;;;;;5078148;28;20260;-89
2022/01/22 00:58:41;;;;;;;1.70;1.10;;;;;;;;;;5078690;28;20200;-89
2022/01/22 01:01:09;;;;;;;6.07;1.77;;;;;;;;;;5077825;28;20227;-89
2022/01/22 01:03:38;;;;;;;1.50;1.47;;;;;;;;;;5079160;28;20215;-89
2022/01/22 01:06:07;;;;;;;0.90;0.90;;;;;;;;;;5077912;28;20230;-89
2022/01/22 01:08:36;;;;;;;5.80;1.57;;;;;;;;;;5076630;28;20315;-89
2022/01/22 01:11:05;;;;;;;3.87;1.63;;;;;;;;;;5078195;28;20222;-89
2022/01/22 01:13:40;;;;;;;4.87;2.10;;;;;;;;;;5078208;28;20228;-89
2022/01/22 01:16:21;;;;;;;1.00;1.00;;;;;;;;;;5078622;28;20249;-90
2022/01/22 01:32:55;;;;;;;3.83;1.53;;;;;;;;;;5078847;28;20202;-89
2022/01/22 01:35:25;;;;;;;0.80;0.80;;;;;;;;;;5078199;28;20215;-89
2022/01/22 01:37:56;;;;;;;3.97;3.73;;;;;;;;;;5078226;28;20202;-90
2022/01/22 01:40:26;;;;;;;0.70;0.70;;;;;;;;;;5077938;28;20217;-89
2022/01/22 01:43:05;;;;;;;1.10;1.10;;;;;;;;;;5078573;28;20227;-89
2022/01/22 01:45:34;;;;;;;4.43;1.00;;;;;;;;;;5077595;28;20193;-89
2022/01/22 01:48:09;;;;;;;3.40;2.13;;;;;;;;;;5077699;28;20516;-89
2022/01/22 01:50:40;;;;;;;0.90;0.90;;;;;;;;;;5077853;28;20217;-89
2022/01/22 01:53:13;;;;;;;3.37;1.77;;;;;;;;;;5078639;28;20259;-89
2022/01/22 01:56:01;;;;;;;3.10;1.30;;;;;;;;;;5077398;28;20322;-89
2022/01/22 01:58:29;;;;;;;1.37;1.27;;;;;;;;;;5078187;28;20228;-87
2022/01/22 02:01:00;;;;;;;3.67;1.40;;;;;;;;;;5078039;28;20268;-89
2022/01/22 02:03:30;;;;;;;0.80;0.80;;;;;;;;;;5078346;28;20253;-87
2022/01/22 02:05:58;;;;;;;1.60;1.03;;;;;;;;;;5078052;28;20202;-88
2022/01/22 02:08:27;;;;;;;0.93;0.93;;;;;;;;;;5077929;28;20226;-88
2022/01/22 02:10:59;;;;;;;1.87;1.70;;;;;;;;;;5077393;28;20246;-88
2022/01/22 02:13:43;;;;;;;6.33;1.73;;;;;;;;;;5077656;28;20253;-88
2022/01/22 02:24:48;;;;;;;1.70;1.60;;;;;;;;;;5081727;28;20233;-88
2022/01/22 02:27:17;;;;;;;7.30;2.13;;;;;;;;;;5081386;28;20207;-88
2022/01/22 02:29:45;;;;;;;0.70;0.70;;;;;;;;;;5080935;28;20243;-88
2022/01/22 02:32:45;;;;;;;1.10;1.10;;;;;;;;;;5081653;28;20234;-88
2022/01/22 02:35:21;;;;;;;2.67;2.47;;;;;;;;;;5081301;28;20223;-88
2022/01/22 02:37:56;;;;;;;6.83;1.77;;;;;;;;;;5081248;28;20199;-88
2022/01/22 02:40:28;;;;;;;1.00;0.97;;;;;;;;;;5081006;28;20190;-88
2022/01/22 02:42:56;;;;;;;0.73;0.73;;;;;;;;;;5080985;28;20197;-88
2022/01/22 02:45:25;;;;;;;0.60;0.60;;;;;;;;;;5081205;28;20242;-88
2022/01/22 02:47:54;;;;;;;6.17;2.13;;;;;;;;;;5081425;28;20230;-88
2022/01/22 02:50:22;;;;;;;0.90;0.90;;;;;;;;;;5080710;28;20227;-88
2022/01/22 02:52:52;;;;;;;1.63;1.53;;;;;;;;;;5080779;28;20265;-88
2022/01/22 02:55:20;;;;;;;0.93;0.93;;;;;;;;;;5080758;28;20243;-88
2022/01/22 02:57:49;;;;;;;0.70;0.70;;;;;;;;;;5081381;28;20208;-89
2022/01/22 03:00:21;;;;;;;0.57;0.57;;;;;;;;;;5080730;28;20242;-89
2022/01/22 03:02:51;;;;;;;2.00;1.53;;;;;;;;;;5081417;28;20288;-88
2022/01/22 03:05:20;;;;;;;0.73;0.73;;;;;;;;;;5080396;28;20203;-88
2022/01/22 03:07:52;;;;;;;1.73;1.63;;;;;;;;;;5080933;28;20233;-88
2022/01/22 03:10:25;;;;;;;4.93;2.40;;;;;;;;;;5080362;28;20216;-89
2022/01/22 03:13:12;;;;;;;5.10;1.37;;;;;;;;;;5081000;28;20248;-88
2022/01/22 03:16:00;;;;;;;5.37;2.10;;;;;;;;;;5080416;28;20207;-88
2022/01/22 03:18:52;;;;;;;3.10;1.63;;;;;;;;;;5080755;28;20219;-88
2022/01/22 03:21:35;;;;;;;4.40;1.43;;;;;;;;;;5080356;28;20269;-88
2022/01/22 03:29:39;;;;;;;3.50;1.27;;;;;;;;;;5080185;28;20252;-88
2022/01/22 03:32:09;;;;;;;3.97;1.20;;;;;;;;;;5080001;28;20207;-88
2022/01/22 03:34:42;;;;;;;3.60;1.30;;;;;;;;;;5080356;28;20196;-88
2022/01/22 03:37:11;;;;;;;3.03;1.87;;;;;;;;;;5081080;28;20202;-88
2022/01/22 03:39:39;;;;;;;0.70;0.70;;;;;;;;;;5080533;28;20222;-88
2022/01/22 03:42:10;;;;;;;1.80;1.70;;;;;;;;;;5080112;28;20223;-88
2022/01/22 03:44:38;;;;;;;0.90;0.90;;;;;;;;;;5080255;28;20280;-89
2022/01/22 03:47:07;;;;;;;8.83;2.10;;;;;;;;;;5080487;28;20199;-88
2022/01/22 03:49:35;;;;;;;6.43;2.03;;;;;;;;;;5079841;28;20536;-89
2022/01/22 03:52:04;;;;;;;8.23;1.80;;;;;;;;;;5080714;28;20238;-88
2022/01/22 03:54:33;;;;;;;2.13;2.03;;;;;;;;;;5080261;28;20314;-88
2022/01/22 03:57:01;;;;;;;7.97;1.70;;;;;;;;;;5079335;28;20210;-88
2022/01/22 03:59:31;;;;;;;2.20;1.30;;;;;;;;;;5079055;28;20279;-88
2022/01/22 04:04:45;;;;;;;1.80;1.53;;;;;;;;;;5079782;28;20244;-88
2022/01/22 04:09:59;;;;;;;4.97;1.43;;;;;;;;;;5079058;28;20222;-88
2022/01/22 04:12:35;;;;;;;1.10;1.00;;;;;;;;;;5079971;28;20210;-88
2022/01/22 04:15:07;;;;;;;1.43;1.30;;;;;;;;;;5079536;28;20192;-88
2022/01/22 04:26:01;;;;;;;1.20;1.20;;;;;;;;;;5079354;28;20225;-88
2022/01/22 04:28:30;;;;;;;0.90;0.90;;;;;;;;;;5079386;28;20285;-88
2022/01/22 04:30:59;;;;;;;0.90;0.90;;;;;;;;;;5079179;28;20232;-88
2022/01/22 04:33:28;;;;;;;1.37;1.27;;;;;;;;;;5078920;28;20199;-88
2022/01/22 04:35:56;;;;;;;2.27;1.30;;;;;;;;;;5079775;28;20202;-88
2022/01/22 04:38:25;;;;;;;1.20;1.10;;;;;;;;;;5078519;28;20207;-88
2022/01/22 04:40:53;;;;;;;1.90;0.80;;;;;;;;;;5078300;28;20204;-88
2022/01/22 04:43:22;;;;;;;2.70;1.40;;;;;;;;;;5078201;28;20233;-88
2022/01/22 04:46:04;;;;;;;1.93;1.67;;;;;;;;;;5078993;28;20218;-88
2022/01/22 04:48:50;;;;;;;0.70;0.70;;;;;;;;;;5078642;28;20224;-88
2022/01/22 04:56:51;;;;;;;0.73;0.73;;;;;;;;;;5078659;28;20203;-88
2022/01/22 04:59:19;;;;;;;3.23;1.47;;;;;;;;;;5078683;28;20225;-88
2022/01/22 05:01:48;;;;;;;0.70;0.70;;;;;;;;;;5078358;28;20229;-89
2022/01/22 05:04:18;;;;;;;1.37;0.97;;;;;;;;;;5078293;28;20224;-89
2022/01/22 05:06:46;;;;;;;1.17;1.07;;;;;;;;;;5078545;28;20226;-89
2022/01/22 05:09:15;;;;;;;0.90;0.90;;;;;;;;;;5078496;28;20223;-89
2022/01/22 05:11:43;;;;;;;0.93;0.93;;;;;;;;;;5079984;28;20246;-89
2022/01/22 05:14:11;;;;;;;1.73;1.40;;;;;;;;;;5079487;28;20257;-89
2022/01/22 05:16:40;;;;;;;0.60;0.60;;;;;;;;;;5078951;28;20256;-88
2022/01/22 05:19:13;;;;;;;1.10;1.07;;;;;;;;;;5079131;28;20233;-89
2022/01/22 05:21:44;;;;;;;3.00;1.17;;;;;;;;;;5079125;28;20208;-89
2022/01/22 05:24:17;;;;;;;3.20;1.57;;;;;;;;;;5078504;28;20244;-89
2022/01/22 05:27:16;;;;;;;1.57;0.77;;;;;;;;;;5079239;28;20218;-89
2022/01/22 05:30:05;;;;;;;3.67;1.63;;;;;;;;;;5078707;28;20222;-89
2022/01/22 05:32:49;;;;;;;2.43;2.20;;;;;;;;;;5078125;28;20319;-89
2022/01/22 05:38:07;;;;;;;1.80;1.47;;;;;;;;;;5078499;28;20192;-89
2022/01/22 05:40:35;;;;;;;7.20;3.37;;;;;;;;;;5078406;28;20262;-89
2022/01/22 05:43:04;;;;;;;1.90;1.23;;;;;;;;;;5077318;28;20232;-88
2022/01/22 05:45:32;;;;;;;4.57;1.30;;;;;;;;;;5078268;28;20209;-89
2022/01/22 05:48:01;;;;;;;6.77;1.43;;;;;;;;;;5078048;28;20213;-88
2022/01/22 05:50:33;;;;;;;4.53;1.80;;;;;;;;;;5078015;28;20207;-89
2022/01/22 05:53:06;;;;;;;14.83;1.63;;;;;;;;;;5080642;28;20248;-88
2022/01/22 06:01:08;;;;;;;5.97;1.17;;;;;;;;;;5081692;28;20223;-89
2022/01/22 06:03:37;;;;;;;1.10;1.00;;;;;;;;;;5081258;28;20224;-89
2022/01/22 06:06:05;;;;;;;3.37;1.20;;;;;;;;;;5081868;28;20203;-89
2022/01/22 06:08:39;;;;;;;1.70;1.60;;;;;;;;;;5081353;28;20241;-89
2022/01/22 06:11:11;;;;;;;5.30;1.77;;;;;;;;;;5081165;28;20227;-89
2022/01/22 06:13:44;;;;;;;5.63;1.50;;;;;;;;;;5081052;28;20203;-89
2022/01/22 06:16:13;;;;;;;11.43;2.20;;;;;;;;;;5080651;28;20211;-89
2022/01/22 06:18:41;;;;;;;2.43;1.50;;;;;;;;;;5080873;28;20235;-88
2022/01/22 06:21:10;;;;;;;3.70;1.10;;;;;;;;;;5081659;28;20265;-89
2022/01/22 06:23:39;;;;;;;5.63;1.00;;;;;;;;;;5080556;28;20236;-89
2022/01/22 06:26:08;;;;;;;4.80;1.23;;;;;;;;;;5081373;28;20225;-88
2022/01/22 06:28:38;;;;;;;2.00;1.37;;;;;;;;;;5080656;28;20222;-89
2022/01/22 06:31:07;;;;;;;1.00;1.00;;;;;;;;;;5080756;28;20317;-89
2022/01/22 06:33:36;;;;;;;1.23;1.23;;;;;;;;;;5080655;28;20281;-89
2022/01/22 06:36:05;;;;;;;1.67;1.40;;;;;;;;;;5080857;28;20223;-89
2022/01/22 06:38:34;;;;;;;2.70;2.23;;;;;;;;;;5080600;28;20263;-89
2022/01/22 06:43:49;;;;;;;0.70;0.70;;;;;;;;;;5080484;28;20203;-89
2022/01/22 06:46:18;;;;;;;2.07;1.80;;;;;;;;;;5081184;28;20212;-89
2022/01/22 06:48:46;;;;;;;0.70;0.70;;;;;;;;;;5080157;28;20207;-89
2022/01/22 06:51:16;;;;;;;1.17;1.17;;;;;;;;;;5081155;28;20229;-88
2022/01/22 06:53:44;;;;;;;1.37;1.27;;;;;;;;;;5080550;28;20230;-89
2022/01/22 06:56:19;;;;;;;8.57;2.10;;;;;;;;;;5080404;28;20238;-88
2022/01/22 06:58:47;;;;;;;1.00;1.00;;;;;;;;;;5080248;28;20202;-88
2022/01/22 07:01:17;;;;;;;2.90;2.80;;;;;;;;;;5080588;28;20199;-88
2022/01/22 07:03:46;;;;;;;0.80;0.80;;;;;;;;;;5079692;28;20236;-88
2022/01/22 07:06:14;;;;;;;6.50;3.20;;;;;;;;;;5081049;28;20222;-89
2022/01/22 07:08:43;;;;;;;1.00;1.00;;;;;;;;;;5080057;28;20206;-88
2022/01/22 07:11:11;;;;;;;0.97;0.97;;;;;;;;;;5080675;28;20212;-89
2022/01/22 07:13:40;;;;;;;0.60;0.60;;;;;;;;;;5080371;28;20207;-89
2022/01/22 07:16:08;;;;;;;3.27;1.50;;;;;;;;;;5080274;28;20213;-89
2022/01/22 07:18:38;;;;;;;0.90;0.90;;;;;;;;;;5079800;28;20229;-89
2022/01/22 07:21:15;;;;;;;0.97;0.97;;;;;;;;;;5079863;28;20223;-88
2022/01/22 07:26:32;;;;;;;5.10;2.00;;;;;;;;;;5080052;28;20242;-89
2022/01/22 07:29:01;;;;;;;4.30;2.23;;;;;;;;;;5079168;28;20199;-89
2022/01/22 07:31:35;;;;;;;2.33;1.10;;;;;;;;;;5079613;28;20199;-89
2022/01/22 07:34:05;;;;;;;3.80;1.60;;;;;;;;;;5079882;28;20214;-89
2022/01/22 07:36:33;;;;;;;3.97;1.80;;;;;;;;;;5080675;28;20207;-89
2022/01/22 07:39:01;;;;;;;2.63;1.33;;;;;;;;;;5080275;28;20195;-89
2022/01/22 07:41:30;;;;;;;1.50;1.40;;;;;;;;;;5079589;28;20214;-89
2022/01/22 07:43:58;;;;;;;4.90;1.83;;;;;;;;;;5079686;28;20219;-89
2022/01/22 07:46:28;;;;;;;0.70;0.70;;;;;;;;;;5080209;28;20211;-89
2022/01/22 07:48:56;;;;;;;1.30;1.20;;;;;;;;;;5079653;28;20211;-89
2022/01/22 07:51:26;;;;;;;2.20;1.13;;;;;;;;;;5079917;28;20234;-89
2022/01/22 07:53:54;;;;;;;2.47;1.03;;;;;;;;;;5079158;28;20252;-89
2022/01/22 07:56:23;;;;;;;1.97;1.20;;;;;;;;;;5079763;28;20302;-89
2022/01/22 07:58:51;;;;;;;0.80;0.80;;;;;;;;;;5079127;28;20208;-89
2022/01/22 08:01:20;;;;;;;1.70;1.00;;;;;;;;;;5079677;28;20212;-89
2022/01/22 08:03:51;;;;;;;1.87;1.73;;;;;;;;;;5078904;28;20226;-89
2022/01/22 08:06:19;;;;;;;0.80;0.80;;;;;;;;;;5079271;28;20216;-88
2022/01/22 08:08:49;;;;;;;1.40;1.30;;;;;;;;;;5078869;28;20202;-88
2022/01/22 08:11:17;;;;;;;5.87;1.33;;;;;;;;;;5079696;28;20195;-89
2022/01/22 08:13:46;;;;;;;4.13;2.00;;;;;;;;;;5078933;28;20254;-89
2022/01/22 08:16:14;;;;;;;2.77;1.70;;;;;;;;;;5078505;28;20214;-89
2022/01/22 08:18:43;;;;;;;3.90;2.10;;;;;;;;;;5079947;28;20206;-89
2022/01/22 08:21:11;;;;;;;2.47;2.10;;;;;;;;;;5079140;28;20206;-88
2022/01/22 08:23:39;;;;;;;1.37;1.33;;;;;;;;;;5079052;28;20252;-88
2022/01/22 08:26:11;;;;;;;1.40;1.30;;;;;;;;;;5078605;28;20245;-88
2022/01/22 08:28:57;;;;;;;2.87;1.10;;;;;;;;;;5078628;28;20234;-89
2022/01/22 08:31:39;;;;;;;1.23;1.13;;;;;;;;;;5079268;28;20222;-88
2022/01/22 08:36:54;;;;;;;3.70;1.67;;;;;;;;;;5078721;28;20210;-88
2022/01/22 08:39:23;;;;;;;1.20;1.20;;;;;;;;;;5078625;28;20244;-88
2022/01/22 08:41:56;;;;;;;3.80;1.60;;;;;;;;;;5079013;28;20204;-88
2022/01/22 08:44:24;;;;;;;1.23;1.20;;;;;;;;;;5078471;28;20190;-88
2022/01/22 08:46:53;;;;;;;0.80;0.80;;;;;;;;;;5080193;28;20227;-88
2022/01/22 08:49:21;;;;;;;0.80;0.80;;;;;;;;;;5079261;28;20217;-88
2022/01/22 08:51:49;;;;;;;1.30;1.27;;;;;;;;;;5079888;28;20200;-88
2022/01/22 08:54:18;;;;;;;2.83;1.20;;;;;;;;;;5078155;28;20223;-88
2022/01/22 08:56:46;;;;;;;0.80;0.80;;;;;;;;;;5079155;28;20300;-89
2022/01/22 08:59:16;;;;;;;6.03;1.83;;;;;;;;;;5079144;28;20207;-88
2022/01/22 09:01:48;;;;;;;1.57;1.57;;;;;;;;;;5079348;28;20212;-89
2022/01/22 09:04:17;;;;;;;1.27;1.10;;;;;;;;;;5077841;28;20301;-89
2022/01/22 09:06:46;;;;;;;2.67;2.10;;;;;;;;;;5078367;28;20198;-89
2022/01/22 09:09:14;;;;;;;2.40;1.33;;;;;;;;;;5078744;28;20198;-89
2022/01/22 09:11:44;;;;;;;3.03;1.30;;;;;;;;;;5078824;28;20208;-88
2022/01/22 09:14:13;;;;;;;3.10;1.73;;;;;;;;;;5077514;28;20258;-89
2022/01/22 09:16:43;;;;;;;2.03;1.07;;;;;;;;;;5078375;28;20215;-89
2022/01/22 09:19:12;;;;;;;1.10;1.10;;;;;;;;;;5078629;28;20203;-89
2022/01/22 09:21:42;;;;;;;1.00;1.00;;;;;;;;;;5078365;28;20235;-88
2022/01/22 09:24:11;;;;;;;3.33;1.03;;;;;;;;;;5078726;28;20198;-88
2022/01/22 09:26:39;;;;;;;1.17;1.17;;;;;;;;;;5080534;28;20235;-88
2022/01/22 09:29:08;;;;;;;0.80;0.80;;;;;;;;;;5082099;28;20203;-89
2022/01/22 09:31:36;;;;;;;0.97;0.97;;;;;;;;;;5083177;28;20212;-88
2022/01/22 09:34:06;;;;;;;0.80;0.80;;;;;;;;;;5082829;28;20291;-89
2022/01/22 09:36:35;;;;;;;2.00;1.13;;;;;;;;;;5082531;28;20205;-89
2022/01/22 09:39:04;;;;;;;3.93;1.33;;;;;;;;;;5083722;28;20235;-89
2022/01/22 09:41:33;;;;;;;9.70;9.20;;;;;;;;;;5082669;28;20208;-89
2022/01/22 09:44:21;;;;;;;2.83;1.50;;;;;;;;;;5082884;28;20200;-89
2022/01/22 09:46:50;;;;;;;0.87;0.87;;;;;;;;;;5081989;28;20212;-88
2022/01/22 09:49:19;;;;;;;0.90;0.90;;;;;;;;;;5082522;28;20209;-88
2022/01/22 09:51:48;;;;;;;1.27;1.17;;;;;;;;;;5082446;28;20233;-89
2022/01/22 09:54:16;;;;;;;1.77;1.77;;;;;;;;;;5082023;28;20228;-89
2022/01/22 09:56:46;;;;;;;2.73;1.53;;;;;;;;;;5083399;28;20286;-89
2022/01/22 09:59:14;;;;;;;2.00;1.40;;;;;;;;;;5082061;28;20201;-89
2022/01/22 10:01:43;;;;;;;1.53;1.43;;;;;;;;;;5082535;28;20212;-89
2022/01/22 10:04:11;;;;;;;1.23;1.13;;;;;;;;;;5081519;28;20232;-89
2022/01/22 10:06:53;;;;;;;0.90;0.90;;;;;;;;;;5082866;28;20228;-89
2022/01/22 10:09:34;;;;;;;3.20;2.30;;;;;;;;;;5082118;28;20214;-89
2022/01/22 10:12:10;;;;;;;1.97;1.87;;;;;;;;;;5083152;28;20210;-89
2022/01/22 10:15:00;;;;;;;0.97;0.97;;;;;;;;;;5082545;28;20217;-88
2022/01/22 10:17:39;;;;;;;1.60;1.03;;;;;;;;;;5062156;28;20205;-89
2022/01/22 10:20:27;;;;;;;0.80;0.80;;;;;;;;;;5062438;28;20239;-89
2022/01/22 10:23:00;;;;;;;2.17;1.80;;;;;;;;;;5061629;28;20211;-90
2022/01/22 10:25:32;;;;;;;3.30;2.27;;;;;;;;;;5061133;28;20251;-89
2022/01/22 10:28:01;;;;;;;1.00;1.00;;;;;;;;;;5061215;28;20192;-89
2022/01/22 10:30:36;;;;;;;0.87;0.87;;;;;;;;;;5061957;28;20241;-89
2022/01/22 10:33:20;;;;;;;2.60;1.33;;;;;;;;;;5060529;28;20205;-89
2022/01/22 10:35:49;;;;;;;1.57;1.10;;;;;;;;;;5061957;28;20247;-90
2022/01/22 10:38:21;;;;;;;2.03;1.50;;;;;;;;;;5059885;28;20205;-89
2022/01/22 10:40:50;;;;;;;2.10;0.93;;;;;;;;;;5062122;28;20200;-89
2022/01/22 10:43:28;;;;;;;2.00;1.73;;;;;;;;;;5060463;28;20201;-89
2022/01/22 10:46:08;;;;;;;0.83;0.83;;;;;;;;;;5064154;28;20195;-89
2022/01/22 10:48:38;;;;;;;0.80;0.80;;;;;;;;;;5063268;28;20235;-90
2022/01/22 10:51:09;;;;;;;1.30;1.20;;;;;;;;;;5061443;28;20265;-89
2022/01/22 10:53:44;;;;;;;1.17;1.17;;;;;;;;;;5060616;28;20224;-89
2022/01/22 10:56:13;;;;;;;1.93;1.83;;;;;;;;;;5060267;28;20263;-89
2022/01/22 10:58:49;;;;;;;7.63;1.63;;;;;;;;;;5060737;28;20263;-89
2022/01/22 11:01:17;;;;;;;4.53;1.87;;;;;;;;;;5060619;28;20224;-90
2022/01/22 11:03:46;;;;;;;1.40;1.13;;;;;;;;;;5060617;28;20226;-90
2022/01/22 11:06:25;;;;;;;4.03;2.50;;;;;;;;;;5061375;28;20387;-89
2022/01/22 11:08:56;;;;;;;1.40;1.30;;;;;;;;;;5060451;28;20197;-89
2022/01/22 11:11:25;;;;;;;2.73;2.10;;;;;;;;;;5061323;28;20218;-90
2022/01/22 11:13:53;;;;;;;7.93;1.93;;;;;;;;;;5060572;28;20260;-89
2022/01/22 11:16:22;;;;;;;4.80;2.43;;;;;;;;;;5074996;28;20290;-90
2022/01/22 11:19:11;;;;;;;4.53;1.83;;;;;;;;;;5080138;28;20240;-88
2022/01/22 11:21:44;;;;;;;2.17;1.80;;;;;;;;;;5080732;28;20258;-90
2022/01/22 11:24:14;;;;;;;3.43;1.90;;;;;;;;;;5080877;28;20255;-89
2022/01/22 11:26:44;;;;;;;1.90;1.80;;;;;;;;;;5080910;28;20204;-90
2022/01/22 11:29:14;;;;;;;1.27;1.23;;;;;;;;;;5080487;28;20193;-89
2022/01/22 11:31:45;;;;;;;1.37;1.37;;;;;;;;;;5080262;28;20224;-89
2022/01/22 11:34:14;;;;;;;1.73;1.60;;;;;;;;;;5080490;28;20206;-90
2022/01/22 11:36:45;;;;;;;2.67;1.97;;;;;;;;;;5079399;28;20201;-89
2022/01/22 11:39:19;;;;;;;2.93;1.20;;;;;;;;;;5079998;28;20213;-89
2022/01/22 11:41:55;;;;;;;1.87;1.70;;;;;;;;;;5079472;28;20275;-89
2022/01/22 11:44:25;;;;;;;1.80;1.70;;;;;;;;;;5080474;28;20230;-89
2022/01/22 11:47:08;;;;;;;3.00;1.80;;;;;;;;;;5079414;28;20204;-89
2022/01/22 11:49:36;;;;;;;1.37;1.30;;;;;;;;;;5080672;28;20220;-89
2022/01/22 11:52:26;;;;;;;1.03;1.03;;;;;;;;;;5080140;28;20204;-89
2022/01/22 11:54:59;;;;;;;3.07;1.47;;;;;;;;;;5080524;28;20239;-89
2022/01/22 11:57:29;;;;;;;4.07;2.33;;;;;;;;;;5079099;28;20212;-89
2022/01/22 12:00:19;;;;;;;1.37;1.23;;;;;;;;;;5080335;28;20260;-89
2022/01/22 12:03:08;;;;;;;3.57;2.33;;;;;;;;;;5079098;28;20280;-89
2022/01/22 12:06:07;;;;;;;1.10;1.10;;;;;;;;;;5080337;28;20322;-89
2022/01/22 12:08:55;;;;;;;1.47;1.37;;;;;;;;;;5079608;28;20256;-89
2022/01/22 12:14:48;;;;;;;2.20;1.27;;;;;;;;;;5079484;28;20234;-89
2022/01/22 12:17:23;;;;;;;1.23;1.13;;;;;;;;;;5059260;28;20204;-89
2022/01/22 12:20:06;;;;;;;1.97;1.63;;;;;;;;;;5060482;28;20192;-89
2022/01/22 12:22:48;;;;;;;1.53;1.43;;;;;;;;;;5059078;28;20193;-89
2022/01/22 12:25:35;;;;;;;0.70;0.70;;;;;;;;;;5060251;28;20204;-89
2022/01/22 12:28:05;;;;;;;4.90;2.63;;;;;;;;;;5060657;28;20245;-89
2022/01/22 12:30:36;;;;;;;1.90;1.80;;;;;;;;;;5060547;28;20228;-89
2022/01/22 12:33:06;;;;;;;2.83;2.10;;;;;;;;;;5061045;28;20197;-89
2022/01/22 12:35:36;;;;;;;2.00;1.67;;;;;;;;;;5058425;28;20255;-89
2022/01/22 12:38:16;;;;;;;1.87;1.63;;;;;;;;;;5058206;28;20223;-89
2022/01/22 12:40:46;;;;;;;4.77;2.37;;;;;;;;;;5058414;28;20206;-89
2022/01/22 12:43:26;;;;;;;3.20;1.77;;;;;;;;;;5057961;28;20267;-89
2022/01/22 12:45:56;;;;;;;1.83;1.73;;;;;;;;;;5059044;28;20186;-89
2022/01/22 12:48:27;;;;;;;3.67;2.07;;;;;;;;;;5057551;28;20210;-89
2022/01/22 12:51:00;;;;;;;4.17;2.67;;;;;;;;;;5058290;28;20221;-89
2022/01/22 12:53:29;;;;;;;0.93;0.93;;;;;;;;;;5057979;28;20205;-89
2022/01/22 12:56:24;;;;;;;2.20;2.00;;;;;;;;;;5058357;28;20272;-89
2022/01/22 12:58:52;;;;;;;5.57;3.83;;;;;;;;;;5058205;28;20213;-89
2022/01/22 13:01:24;;;;;;;5.57;1.87;;;;;;;;;;5057757;28;20254;-89
2022/01/22 13:03:53;;;;;;;3.93;2.57;;;;;;;;;;5058161;28;20231;-89
2022/01/22 13:06:24;;;;;;;4.53;3.17;;;;;;;;;;5058990;28;20197;-89
2022/01/22 13:08:55;;;;;;;2.77;2.57;;;;;;;;;;5058729;28;20209;-90
2022/01/22 13:11:26;;;;;;;1.83;1.73;;;;;;;;;;5058106;28;20261;-89
2022/01/22 13:13:56;;;;;;;2.03;1.83;;;;;;;;;;5057876;28;20258;-89
2022/01/22 13:16:25;;;;;;;1.57;1.47;;;;;;;;;;5072417;28;20224;-89
2022/01/22 13:18:57;;;;;;;2.03;1.93;;;;;;;;;;5077642;28;20203;-89
2022/01/22 13:21:26;;;;;;;2.03;1.93;;;;;;;;;;5078587;28;20194;-89
2022/01/22 13:24:05;;;;;;;2.87;2.63;;;;;;;;;;5078579;28;20207;-89
2022/01/22 13:26:44;;;;;;;13.67;3.33;;;;;;;;;;5078330;28;20195;-89
2022/01/22 13:29:18;;;;;;;2.70;2.50;;;;;;;;;;5078224;28;20238;-89
2022/01/22 13:32:05;;;;;;;3.17;2.97;;;;;;;;;;5077810;28;20201;-89
2022/01/22 13:34:54;;;;;;;2.33;2.13;;;;;;;;;;5077586;28;20204;-89
2022/01/22 13:40:25;;;;;;;3.27;2.57;;;;;;;;;;5078186;28;20211;-89
2022/01/22 13:48:42;;;;;;;1.63;1.57;;;;;;;;;;5016164;28;20201;-89
2022/01/22 13:51:11;;;;;;;4.20;2.23;;;;;;;;;;5052144;28;20227;-89
2022/01/22 13:53:40;;;;;;;6.63;4.07;;;;;;;;;;5077936;28;20207;-89
2022/01/22 13:56:12;;;;;;;5.90;1.77;;;;;;;;;;5076861;28;20310;-89
2022/01/22 13:58:40;;;;;;;5.27;2.57;;;;;;;;;;5078024;28;20236;-89
2022/01/22 14:01:19;;;;;;;1.07;1.07;;;;;;;;;;5077474;28;20219;-89
2022/01/22 14:04:09;;;;;;;3.50;2.10;;;;;;;;;;5078308;28;20224;-89
2022/01/22 14:06:37;;;;;;;2.50;2.33;;;;;;;;;;5078657;28;20200;-89
2022/01/22 14:09:13;;;;;;;2.50;2.30;;;;;;;;;;5077634;28;20208;-89
2022/01/22 14:11:56;;;;;;;3.37;2.67;;;;;;;;;;5077295;28;20205;-89
2022/01/22 14:14:25;;;;;;;8.83;5.20;;;;;;;;;;5080237;28;20208;-89
2022/01/22 14:17:09;;;;;;;3.30;1.60;;;;;;;;;;5081241;28;20223;-89
2022/01/22 14:19:39;;;;;;;3.53;2.93;;;;;;;;;;5081533;28;20187;-88
2022/01/22 14:22:08;;;;;;;5.50;3.30;;;;;;;;;;5080872;28;20226;-88
2022/01/22 14:24:36;;;;;;;5.30;4.07;;;;;;;;;;5080566;28;20199;-88
2022/01/22 14:27:05;;;;;;;3.60;3.27;;;;;;;;;;5080461;28;20212;-89
2022/01/22 14:29:44;;;;;;;1.77;1.73;;;;;;;;;;5080459;28;20234;-89
2022/01/22 14:32:17;;;;;;;1.97;1.87;;;;;;;;;;5080730;28;20241;-89
2022/01/22 14:34:47;;;;;;;3.33;2.57;;;;;;;;;;5080843;28;20200;-89
2022/01/22 14:37:26;;;;;;;6.13;2.47;;;;;;;;;;5079776;28;20220;-89
2022/01/22 14:45:27;;;;;;;7.23;3.97;;;;;;;;;;5080730;28;20195;-88
2022/01/22 14:47:57;;;;;;;2.17;1.87;;;;;;;;;;5080580;28;20213;-88
2022/01/22 14:50:28;;;;;;;2.67;1.97;;;;;;;;;;5080460;28;20204;-88
2022/01/22 14:52:57;;;;;;;2.10;1.83;;;;;;;;;;5079725;28;20228;-88
2022/01/22 14:55:27;;;;;;;3.27;1.70;;;;;;;;;;5079957;28;20270;-88
2022/01/22 14:57:56;;;;;;;3.87;1.53;;;;;;;;;;5080262;28;20207;-89
2022/01/22 15:00:25;;;;;;;1.17;0.97;;;;;;;;;;5079904;28;20208;-89
2022/01/22 15:02:53;;;;;;;2.20;1.77;;;;;;;;;;5079767;28;20285;-88
2022/01/22 15:05:22;;;;;;;2.90;2.10;;;;;;;;;;5080091;28;20277;-88
2022/01/22 15:07:52;;;;;;;3.87;2.30;;;;;;;;;;5080151;28;20239;-89
2022/01/22 15:10:21;;;;;;;7.73;2.30;;;;;;;;;;5080224;28;20207;-89
2022/01/22 15:12:50;;;;;;;2.83;1.83;;;;;;;;;;5079221;28;20242;-89
2022/01/22 15:15:40;;;;;;;2.27;1.93;;;;;;;;;;5079628;28;20203;-89
2022/01/22 15:18:13;;;;;;;1.23;0.90;;;;;;;;;;5079560;28;20210;-89
2022/01/22 15:20:41;;;;;;;3.87;1.67;;;;;;;;;;5079476;28;20207;-89
2022/01/22 15:23:11;;;;;;;1.30;1.30;;;;;;;;;;5079480;28;20211;-89
2022/01/22 15:25:39;;;;;;;5.00;2.40;;;;;;;;;;5078513;28;20207;-89
2022/01/22 15:28:08;;;;;;;1.17;1.17;;;;;;;;;;5078606;28;20254;-89
2022/01/22 15:30:36;;;;;;;0.93;0.93;;;;;;;;;;5078518;28;20236;-89
2022/01/22 15:33:18;;;;;;;3.60;1.93;;;;;;;;;;5078880;28;20208;-89
2022/01/22 15:35:46;;;;;;;1.30;1.20;;;;;;;;;;5078414;28;20266;-89
2022/01/22 15:38:16;;;;;;;0.93;0.93;;;;;;;;;;5079184;28;20223;-89
2022/01/22 15:40:45;;;;;;;0.97;0.97;;;;;;;;;;5079655;28;20303;-88
2022/01/22 15:43:14;;;;;;;5.30;1.77;;;;;;;;;;5075357;28;20217;-87
2022/01/22 15:45:43;;;;;;;1.00;1.00;;;;;;;;;;5081821;28;20239;-88
2022/01/22 15:48:11;;;;;;;0.93;0.93;;;;;;;;;;5081474;28;20205;-86
2022/01/22 15:50:40;;;;;;;0.80;0.80;;;;;;;;;;5079913;28;20226;-89
2022/01/22 15:53:12;;;;;;;1.67;1.57;;;;;;;;;;5079287;28;20234;-87
2022/01/22 15:55:42;;;;;;;1.33;1.30;;;;;;;;;;5079079;28;20254;-87
2022/01/22 15:58:11;;;;;;;1.23;1.13;;;;;;;;;;5081002;28;20253;-87
2022/01/22 16:00:41;;;;;;;0.87;0.77;;;;;;;;;;5078973;28;20207;-87
2022/01/22 16:03:10;;;;;;;1.33;1.23;;;;;;;;;;5075838;28;20272;-87
2022/01/22 16:05:42;;;;;;;0.77;0.77;;;;;;;;;;5078245;28;20230;-87
2022/01/22 16:08:11;;;;;;;1.20;1.10;;;;;;;;;;5079793;28;20192;-88
2022/01/22 16:11:01;;;;;;;1.33;1.30;;;;;;;;;;5066071;28;20263;-89
2022/01/22 16:13:29;;;;;;;1.13;1.13;;;;;;;;;;5081913;28;20203;-88
2022/01/22 16:15:58;;;;;;;1.37;1.37;;;;;;;;;;5081587;28;20232;-88
2022/01/22 16:18:26;;;;;;;1.10;1.00;;;;;;;;;;5081363;28;20262;-88
2022/01/22 16:20:55;;;;;;;18.67;1.23;;;;;;;;;;5080946;28;20235;-88
2022/01/22 16:23:23;;;;;;;3.93;1.20;;;;;;;;;;5081105;28;20207;-88
2022/01/22 16:25:51;;;;;;;0.80;0.80;;;;;;;;;;5081055;28;20341;-88
2022/01/22 16:28:21;;;;;;;1.20;1.10;;;;;;;;;;5081239;28;20195;-88
2022/01/22 16:30:50;;;;;;;1.30;1.20;;;;;;;;;;5081136;28;20257;-88
2022/01/22 16:33:18;;;;;;;2.70;2.50;;;;;;;;;;5080248;28;20255;-88
2022/01/22 16:35:51;;;;;;;7.83;1.40;;;;;;;;;;5080512;28;20228;-88